Terminal Aerodrome Forecast
Issued by NWS Louisville, KY

Home | Current Version | Previous Version | Text Only | Print | Product List | Glossary On
Versions: 1 2 3 4 5 6 7 8 9 10 11 12 13 14
454
FTUS43 KLMK 281342 AAA
TAFSDF
TAF AMD
KSDF 281342Z 2814/2918 15005KT 4SM BR BKN008
      TEMPO 2814/2815 2SM -RA BR
     FM281500 33007KT P6SM VCTS SCT015CB BKN020
     FM281900 36012G20KT P6SM SCT030 BKN070
     FM290200 35010KT P6SM SCT050=

USA.gov is the U.S. government's official web portal to all federal, state and local government web resources and services.